Terminal Aerodrome Forecast
Issued by NWS

Home | Current Version | Previous Version | Text Only | Print | Product List | Glossary On
Versions: 1 2 3 4 5 6 7 8 9 10 11 12 13 14 15 16 17 18
000
FTUS46 KMTR 221730
TAFSNS
TAF
KSNS 221730Z 2218/2318 00000KT P6SM FEW100
     FM221900 29007KT P6SM SKC
     FM222100 28013KT P6SM SKC
     FM230500 31007KT P6SM FEW008
     FM230800 31003KT P6SM OVC006
     FM231100 VRB02KT P6SM OVC004
     FM231700 29006KT P6SM FEW006=

USA.gov is the U.S. government's official web portal to all federal, state and local government web resources and services.